createdAt,value
2022-08-03T00:00:32.611Z,51.54
2022-08-03T00:03:00.426Z,51.27
2022-08-03T00:05:28.219Z,51.42
2022-08-03T00:07:55.961Z,51.47
2022-08-03T00:10:23.989Z,51.27
2022-08-03T00:12:51.735Z,51.16
2022-08-03T00:15:20.484Z,51.27
2022-08-03T00:17:53.620Z,51.14
2022-08-03T00:20:22.605Z,51.03
2022-08-03T00:22:50.554Z,51.40
2022-08-03T00:25:18.390Z,51.08
2022-08-03T00:27:48.351Z,51.53
2022-08-03T00:30:18.273Z,51.47
2022-08-03T00:32:45.916Z,51.61
2022-08-03T00:35:21.284Z,51.27
2022-08-03T00:38:01.803Z,51.39
2022-08-03T00:40:29.734Z,51.54
2022-08-03T00:42:59.767Z,51.49
2022-08-03T00:45:31.132Z,51.21
2022-08-03T00:47:59.733Z,51.21
2022-08-03T00:50:29.348Z,51.10
2022-08-03T00:52:58.962Z,51.25
2022-08-03T00:55:27.059Z,51.12
2022-08-03T00:57:55.651Z,50.90
2022-08-03T01:00:26.737Z,51.11
2022-08-03T01:02:54.853Z,51.14
2022-08-03T01:05:22.779Z,51.23
2022-08-03T01:08:13.514Z,50.96
2022-08-03T01:11:12.165Z,51.36
2022-08-03T01:14:18.781Z,50.81
2022-08-03T01:17:02.496Z,51.31
2022-08-03T01:20:02.434Z,51.11
2022-08-03T01:22:33.382Z,50.79
2022-08-03T01:25:14.005Z,50.98
2022-08-03T01:28:00.164Z,50.67
2022-08-03T01:30:33.799Z,50.87
2022-08-03T01:33:06.737Z,50.61
2022-08-03T01:35:42.761Z,51.00
2022-08-03T01:38:15.500Z,50.57
2022-08-03T01:40:45.014Z,50.61
2022-08-03T01:44:27.004Z,50.79
2022-08-03T01:46:07.923Z,50.75
2022-08-03T01:48:39.515Z,50.71
2022-08-03T01:51:09.306Z,50.91
2022-08-03T01:53:42.916Z,50.46
2022-08-03T01:56:12.252Z,50.56
2022-08-03T01:58:42.475Z,50.44
2022-08-03T02:01:12.219Z,50.33
2022-08-03T02:04:00.407Z,50.74
2022-08-03T02:06:59.797Z,50.47
2022-08-03T02:09:23.051Z,50.72
2022-08-03T02:11:53.723Z,50.57
2022-08-03T02:14:24.103Z,50.44
2022-08-03T02:16:53.066Z,50.37
2022-08-03T02:19:21.401Z,50.69
2022-08-03T02:21:56.695Z,50.34
2022-08-03T02:24:31.031Z,50.71
2022-08-03T02:27:00.079Z,50.08
2022-08-03T02:29:39.368Z,50.71
2022-08-03T02:32:17.634Z,50.17
2022-08-03T02:34:49.414Z,50.40
2022-08-03T02:37:20.280Z,50.36
2022-08-03T02:39:49.486Z,50.22
2022-08-03T02:42:21.826Z,50.18
2022-08-03T02:44:51.750Z,50.18
2022-08-03T02:47:21.681Z,50.29
2022-08-03T02:49:52.278Z,50.28
2022-08-03T02:52:23.508Z,49.88
2022-08-03T02:55:00.266Z,50.09
2022-08-03T02:57:30.663Z,49.73
2022-08-03T02:59:59.873Z,50.13
2022-08-03T03:02:28.926Z,50.01
2022-08-03T03:05:52.375Z,50.19
2022-08-03T03:07:52.110Z,50.16
2022-08-03T03:10:25.600Z,50.09
2022-08-03T03:12:56.736Z,50.58
2022-08-03T03:15:37.100Z,50.41
2022-08-03T03:18:05.944Z,50.29
2022-08-03T03:20:35.819Z,50.76
2022-08-03T03:23:05.214Z,50.91
2022-08-03T03:25:33.514Z,50.57
2022-08-03T03:28:02.110Z,50.56
2022-08-03T03:30:30.430Z,50.53
2022-08-03T03:32:59.014Z,50.64
2022-08-03T03:35:27.795Z,50.65
2022-08-03T03:37:55.689Z,50.83
2022-08-03T03:40:23.086Z,50.51
2022-08-03T03:42:50.978Z,50.67
2022-08-03T03:45:19.344Z,50.66
2022-08-03T03:47:46.686Z,50.40
2022-08-03T03:50:15.816Z,50.04
2022-08-03T03:52:43.203Z,50.38
2022-08-03T03:55:10.586Z,49.95
2022-08-03T03:57:37.954Z,50.17
2022-08-03T04:00:06.351Z,49.86
2022-08-03T04:02:33.682Z,49.76
2022-08-03T04:05:19.550Z,50.04
2022-08-03T04:08:27.644Z,49.86
2022-08-03T04:11:21.187Z,49.90
2022-08-03T04:13:56.795Z,50.08
2022-08-03T04:16:31.538Z,50.01
2022-08-03T04:19:10.585Z,49.60
2022-08-03T04:21:42.686Z,49.63
2022-08-03T04:24:11.850Z,49.85
2022-08-03T04:26:41.763Z,49.86
2022-08-03T04:29:13.843Z,49.45
2022-08-03T04:31:42.643Z,49.87
2022-08-03T04:34:10.274Z,49.55
2022-08-03T04:36:44.918Z,49.75
2022-08-03T04:39:25.313Z,49.37
2022-08-03T04:42:07.848Z,49.30
2022-08-03T04:44:40.486Z,49.39
2022-08-03T04:47:08.659Z,49.12
2022-08-03T04:49:40.193Z,49.16
2022-08-03T04:52:08.699Z,49.26
2022-08-03T04:54:45.892Z,48.92
2022-08-03T04:57:22.683Z,48.88
2022-08-03T05:00:02.606Z,49.13
2022-08-03T05:02:32.204Z,48.94
2022-08-03T05:04:59.733Z,48.75
2022-08-03T05:07:36.265Z,49.12
2022-08-03T05:10:14.817Z,49.01
2022-08-03T05:12:43.564Z,47.60
2022-08-03T05:15:11.076Z,46.64
2022-08-03T05:17:38.405Z,46.44
2022-08-03T05:20:06.279Z,46.73
2022-08-03T05:22:33.665Z,46.68
2022-08-03T05:25:02.358Z,46.88
2022-08-03T05:27:29.773Z,46.78
2022-08-03T05:29:57.077Z,46.90
2022-08-03T05:32:44.353Z,46.99
2022-08-03T05:35:57.994Z,47.20
2022-08-03T05:37:59.055Z,47.00
2022-08-03T05:40:26.835Z,46.88
2022-08-03T05:42:54.236Z,47.44
2022-08-03T05:45:24.308Z,46.98
2022-08-03T05:47:55.532Z,46.89
2022-08-03T05:50:38.768Z,47.41
2022-08-03T05:53:10.024Z,47.01
2022-08-03T05:55:37.411Z,47.36
2022-08-03T05:58:04.840Z,47.47
2022-08-03T06:00:32.237Z,47.30
2022-08-03T06:02:59.567Z,47.38
2022-08-03T06:05:28.257Z,47.46
2022-08-03T06:07:55.588Z,47.71
2022-08-03T06:10:36.753Z,47.72
2022-08-03T06:13:05.253Z,47.49
2022-08-03T06:15:33.441Z,47.38
2022-08-03T06:18:02.169Z,47.55
2022-08-03T06:20:30.282Z,47.71
2022-08-03T06:23:01.065Z,47.51
2022-08-03T06:25:29.011Z,48.03
2022-08-03T06:27:56.781Z,48.59
2022-08-03T06:30:24.138Z,48.74
2022-08-03T06:32:51.892Z,49.06
2022-08-03T06:35:20.120Z,49.13
2022-08-03T06:37:50.188Z,48.98
2022-08-03T06:40:21.865Z,49.27
2022-08-03T06:42:51.892Z,49.34
2022-08-03T06:45:19.340Z,49.56
2022-08-03T06:47:46.619Z,49.67
2022-08-03T06:50:17.490Z,49.61
2022-08-03T06:52:45.842Z,49.62
2022-08-03T06:55:13.237Z,49.95
2022-08-03T06:57:40.616Z,50.25
2022-08-03T07:00:12.440Z,50.14
2022-08-03T07:02:42.526Z,50.47
2022-08-03T07:05:10.622Z,50.65
2022-08-03T07:07:38.219Z,50.98
2022-08-03T07:10:06.906Z,50.96
2022-08-03T07:12:34.616Z,51.26
2022-08-03T07:15:03.477Z,51.54
2022-08-03T07:17:32.855Z,51.43
2022-08-03T07:20:01.347Z,51.78
2022-08-03T07:22:28.719Z,52.05
2022-08-03T07:24:56.821Z,52.13
2022-08-03T07:27:27.069Z,52.21
2022-08-03T07:29:55.329Z,51.89
2022-08-03T07:32:22.910Z,52.12
2022-08-03T07:34:50.561Z,52.42
2022-08-03T07:37:17.893Z,52.26
2022-08-03T07:39:46.150Z,52.29
2022-08-03T07:42:13.927Z,52.26
2022-08-03T07:44:42.729Z,52.21
2022-08-03T07:47:10.095Z,52.75
2022-08-03T07:49:49.910Z,52.23
2022-08-03T07:52:35.803Z,51.98
2022-08-03T07:55:04.009Z,51.91
2022-08-03T07:57:31.415Z,52.43
2022-08-03T08:00:02.432Z,52.57
2022-08-03T08:02:40.312Z,52.44
2022-08-03T08:05:08.280Z,51.97
2022-08-03T08:07:55.294Z,52.06
2022-08-03T08:10:22.848Z,51.43
2022-08-03T08:12:50.429Z,51.98
2022-08-03T08:15:17.891Z,51.66
2022-08-03T08:17:51.054Z,51.72
2022-08-03T08:20:27.973Z,52.04
2022-08-03T08:23:03.557Z,52.19
2022-08-03T08:25:39.538Z,52.47
2022-08-03T08:28:32.448Z,51.88
2022-08-03T08:31:01.713Z,51.13
2022-08-03T08:33:42.176Z,51.06
2022-08-03T08:36:15.827Z,51.62
2022-08-03T08:38:45.079Z,51.28
2022-08-03T08:41:14.260Z,51.02
2022-08-03T08:43:42.209Z,50.71
2022-08-03T08:46:23.118Z,49.17
2022-08-03T08:48:52.779Z,49.07
2022-08-03T08:51:21.546Z,49.96
2022-08-03T08:53:52.609Z,49.35
2022-08-03T08:56:22.257Z,50.80
2022-08-03T08:58:53.187Z,48.78
2022-08-03T09:01:21.748Z,49.04
2022-08-03T09:03:49.434Z,49.59
2022-08-03T09:06:17.027Z,49.51
2022-08-03T09:08:44.457Z,49.82
2022-08-03T09:11:12.315Z,49.50
2022-08-03T09:13:39.979Z,49.49
2022-08-03T09:16:19.113Z,49.44
2022-08-03T09:18:50.497Z,49.15
2022-08-03T09:21:33.221Z,49.55
2022-08-03T09:24:05.218Z,50.31
2022-08-03T09:26:35.205Z,49.76
2022-08-03T09:29:14.388Z,50.00
2022-08-03T09:31:46.937Z,49.87
2022-08-03T09:34:16.740Z,50.03
2022-08-03T09:36:49.389Z,50.04
2022-08-03T09:39:18.269Z,49.83
2022-08-03T09:42:05.697Z,49.61
2022-08-03T09:44:37.890Z,49.59
2022-08-03T09:47:10.008Z,49.77
2022-08-03T09:49:38.728Z,49.70
2022-08-03T09:52:31.977Z,49.52
2022-08-03T09:56:30.695Z,49.31
2022-08-03T09:58:10.242Z,49.24
2022-08-03T10:01:07.708Z,49.37
2022-08-03T10:04:04.137Z,49.20
2022-08-03T10:06:32.199Z,49.48
2022-08-03T10:09:10.780Z,49.07
2022-08-03T10:11:42.104Z,49.16
2022-08-03T10:14:19.026Z,48.98
2022-08-03T10:16:47.784Z,49.04
2022-08-03T10:19:15.811Z,49.09
2022-08-03T10:21:50.708Z,49.28
2022-08-03T10:24:24.495Z,49.58
2022-08-03T10:26:53.648Z,48.53
2022-08-03T10:29:28.429Z,48.18
2022-08-03T10:31:59.551Z,47.66
2022-08-03T10:34:34.039Z,47.98
2022-08-03T10:37:08.373Z,47.79
2022-08-03T10:39:36.329Z,47.43
2022-08-03T10:42:05.686Z,47.68
2022-08-03T10:44:42.696Z,47.15
2022-08-03T10:47:11.214Z,47.68
2022-08-03T10:49:39.077Z,48.49
2022-08-03T10:52:13.317Z,48.45
2022-08-03T10:55:12.802Z,48.86
2022-08-03T10:57:58.455Z,49.05
2022-08-03T11:00:28.501Z,48.94
2022-08-03T11:03:14.644Z,49.18
2022-08-03T11:05:48.250Z,48.79
2022-08-03T11:08:20.305Z,49.08
2022-08-03T11:10:49.042Z,49.02
2022-08-03T11:13:19.555Z,49.22
2022-08-03T11:15:49.144Z,48.63
2022-08-03T11:18:16.942Z,48.44
2022-08-03T11:20:44.170Z,48.69
2022-08-03T11:23:11.833Z,48.59
2022-08-03T11:26:10.129Z,48.68
2022-08-03T11:28:41.267Z,48.69
2022-08-03T11:31:48.103Z,48.83
2022-08-03T11:34:14.399Z,48.63
2022-08-03T11:37:20.794Z,48.80
2022-08-03T11:39:50.934Z,48.85
2022-08-03T11:42:24.179Z,48.77
2022-08-03T11:44:52.698Z,48.65
2022-08-03T11:47:24.476Z,48.79
2022-08-03T11:49:55.331Z,48.88
2022-08-03T11:52:27.089Z,48.76
2022-08-03T11:54:56.866Z,48.56
2022-08-03T11:58:58.058Z,48.52
2022-08-03T12:00:28.660Z,48.63
2022-08-03T12:03:02.191Z,48.82
2022-08-03T12:05:38.435Z,48.80
2022-08-03T12:08:07.447Z,48.63
2022-08-03T12:10:35.371Z,48.98
2022-08-03T12:14:44.123Z,48.70
2022-08-03T12:15:55.626Z,48.73
2022-08-03T12:18:24.439Z,48.80
2022-08-03T12:20:54.329Z,48.58
2022-08-03T12:23:21.721Z,48.78
2022-08-03T12:26:06.895Z,48.47
2022-08-03T12:28:37.628Z,48.60
2022-08-03T12:31:07.883Z,48.91
2022-08-03T12:33:59.139Z,48.82
2022-08-03T12:36:28.023Z,48.56
2022-08-03T12:39:05.295Z,48.61
2022-08-03T12:41:38.530Z,48.59
2022-08-03T12:44:07.865Z,48.58
2022-08-03T12:46:37.597Z,48.94
2022-08-03T12:49:06.324Z,48.61
2022-08-03T12:51:53.865Z,48.79
2022-08-03T12:54:24.404Z,48.78
2022-08-03T12:57:08.614Z,48.56
2022-08-03T12:59:52.614Z,48.93
2022-08-03T13:02:23.496Z,48.52
2022-08-03T13:04:52.886Z,48.58
2022-08-03T13:07:20.795Z,48.76
2022-08-03T13:09:51.135Z,48.57
2022-08-03T13:12:26.610Z,48.85
2022-08-03T13:14:58.620Z,48.44
2022-08-03T13:17:26.702Z,48.91
2022-08-03T13:19:54.651Z,48.79
2022-08-03T13:22:24.039Z,48.72
2022-08-03T13:25:00.373Z,48.55
2022-08-03T13:28:12.470Z,48.87
2022-08-03T13:30:28.247Z,48.55
2022-08-03T13:32:58.710Z,48.88
2022-08-03T13:35:26.219Z,48.77
2022-08-03T13:37:53.534Z,48.39
2022-08-03T13:40:23.607Z,48.75
2022-08-03T13:42:57.805Z,48.53
2022-08-03T13:45:25.365Z,48.42
2022-08-03T13:47:52.690Z,48.60
2022-08-03T13:50:19.995Z,48.81
2022-08-03T13:52:47.507Z,48.43
2022-08-03T13:55:14.792Z,48.79
2022-08-03T13:58:02.973Z,48.62
2022-08-03T14:00:30.029Z,48.43
2022-08-03T14:03:05.383Z,48.80
2022-08-03T14:05:38.755Z,48.63
2022-08-03T14:08:07.373Z,48.38
2022-08-03T14:10:36.652Z,48.54
2022-08-03T14:13:05.002Z,48.79
2022-08-03T14:15:38.104Z,48.48
2022-08-03T14:18:12.694Z,48.66
2022-08-03T14:20:50.059Z,48.80
2022-08-03T14:23:36.961Z,48.66
2022-08-03T14:26:08.640Z,48.52
2022-08-03T14:28:36.560Z,48.77
2022-08-03T14:31:04.655Z,48.71
2022-08-03T14:33:35.920Z,48.59
2022-08-03T14:36:03.506Z,48.38
2022-08-03T14:38:31.139Z,48.36
2022-08-03T14:40:58.468Z,48.46
2022-08-03T14:43:25.841Z,48.71
2022-08-03T14:46:01.873Z,48.34
2022-08-03T14:50:30.177Z,48.73
2022-08-03T14:51:16.454Z,48.39
2022-08-03T14:53:43.779Z,48.43
2022-08-03T14:56:11.164Z,48.71
2022-08-03T14:58:38.607Z,48.37
2022-08-03T15:02:02.856Z,48.50
2022-08-03T15:03:54.714Z,48.72
2022-08-03T15:06:22.014Z,48.81
2022-08-03T15:09:20.862Z,48.42
2022-08-03T15:11:37.159Z,48.63
2022-08-03T15:14:09.006Z,48.70
2022-08-03T15:16:37.940Z,48.79
2022-08-03T15:20:00.773Z,48.76
2022-08-03T15:21:52.948Z,48.44
2022-08-03T15:24:20.827Z,48.71
2022-08-03T15:26:48.166Z,48.74
2022-08-03T15:30:07.794Z,48.28
2022-08-03T15:32:07.295Z,48.60
2022-08-03T15:34:36.420Z,48.61
2022-08-03T15:37:05.242Z,48.43
2022-08-03T15:39:58.967Z,48.44
2022-08-03T15:42:35.140Z,48.35
2022-08-03T15:45:02.457Z,48.68
2022-08-03T15:47:29.767Z,48.72
2022-08-03T15:49:57.135Z,48.78
2022-08-03T15:52:24.499Z,48.83
2022-08-03T15:54:51.831Z,48.43
2022-08-03T15:57:19.737Z,48.46
2022-08-03T15:59:47.716Z,48.61
2022-08-03T16:02:15.292Z,48.82
2022-08-03T16:04:42.605Z,48.38
2022-08-03T16:07:12.722Z,48.57
2022-08-03T16:09:42.279Z,48.80
2022-08-03T16:12:11.857Z,48.63
2022-08-03T16:14:53.379Z,48.32
2022-08-03T16:17:22.264Z,48.75
2022-08-03T16:19:52.154Z,48.74
2022-08-03T16:22:26.270Z,48.69
2022-08-03T16:24:54.384Z,48.57
2022-08-03T16:27:37.379Z,48.36
2022-08-03T16:30:12.217Z,48.77
2022-08-03T16:32:39.917Z,48.37
2022-08-03T16:35:07.941Z,48.48
2022-08-03T16:37:38.745Z,48.47
2022-08-03T16:40:17.234Z,48.42
2022-08-03T16:42:47.641Z,48.46
2022-08-03T16:45:14.959Z,48.71
2022-08-03T16:47:42.229Z,48.35
2022-08-03T16:50:15.922Z,48.68
2022-08-03T16:52:48.361Z,48.80
2022-08-03T16:55:42.922Z,48.46
2022-08-03T16:58:04.587Z,48.45
2022-08-03T17:00:41.746Z,48.89
2022-08-03T17:03:12.543Z,48.80
2022-08-03T17:05:49.816Z,48.83
2022-08-03T17:08:26.204Z,48.41
2022-08-03T17:10:56.141Z,48.46
2022-08-03T17:13:38.910Z,48.85
2022-08-03T17:16:09.411Z,48.58
2022-08-03T17:18:49.498Z,48.90
2022-08-03T17:21:20.205Z,48.87
2022-08-03T17:23:53.419Z,48.81
2022-08-03T17:26:23.293Z,48.47
2022-08-03T17:29:11.359Z,48.42
2022-08-03T17:31:48.881Z,48.53
2022-08-03T17:34:20.290Z,48.75
2022-08-03T17:37:05.166Z,48.36
2022-08-03T17:39:58.800Z,48.60
2022-08-03T17:42:29.490Z,48.86
2022-08-03T17:45:06.589Z,48.39
2022-08-03T17:47:42.405Z,48.45
2022-08-03T17:50:25.154Z,48.84
2022-08-03T17:53:23.587Z,48.77
2022-08-03T17:56:04.369Z,48.38
2022-08-03T17:59:08.190Z,48.49
2022-08-03T18:02:10.528Z,48.68
2022-08-03T18:05:00.666Z,48.57
2022-08-03T18:07:41.090Z,48.77
2022-08-03T18:10:11.359Z,48.36
2022-08-03T18:13:01.597Z,48.82
2022-08-03T18:15:42.551Z,48.80
2022-08-03T18:18:12.574Z,48.50
2022-08-03T18:20:42.140Z,48.53
2022-08-03T18:26:12.296Z,48.79
2022-08-03T18:28:40.830Z,48.46
2022-08-03T18:31:12.998Z,48.72
2022-08-03T18:34:19.721Z,48.55
2022-08-03T18:36:50.426Z,48.64
2022-08-03T18:39:19.645Z,48.50
2022-08-03T18:41:47.132Z,48.95
2022-08-03T18:44:53.249Z,48.48
2022-08-03T18:47:16.559Z,48.62
2022-08-03T18:50:04.578Z,48.94
2022-08-03T18:52:54.643Z,48.70
2022-08-03T18:55:33.096Z,48.75
2022-08-03T18:58:03.726Z,48.52
2022-08-03T19:00:53.824Z,48.39
2022-08-03T19:03:42.779Z,48.86
2022-08-03T19:06:23.660Z,48.67
2022-08-03T19:09:05.030Z,48.55
2022-08-03T19:12:11.279Z,48.52
2022-08-03T19:14:35.523Z,48.90
2022-08-03T19:17:11.302Z,48.48
2022-08-03T19:19:43.995Z,48.73
2022-08-03T19:22:15.944Z,48.83
2022-08-03T19:24:46.076Z,48.92
2022-08-03T19:27:14.241Z,48.90
2022-08-03T19:29:58.678Z,48.44
2022-08-03T19:32:29.606Z,48.53
2022-08-03T19:34:59.383Z,48.72
2022-08-03T19:37:37.983Z,48.53
2022-08-03T19:40:10.782Z,48.46
2022-08-03T19:42:45.516Z,48.68
2022-08-03T19:45:21.661Z,48.38
2022-08-03T19:47:53.708Z,48.45
2022-08-03T19:50:21.001Z,48.47
2022-08-03T19:52:50.041Z,48.78
2022-08-03T19:55:18.130Z,48.54
2022-08-03T19:57:49.169Z,48.78
2022-08-03T20:00:26.125Z,48.58
2022-08-03T20:02:54.334Z,48.53
2022-08-03T20:05:21.878Z,48.79
2022-08-03T20:07:50.066Z,48.52
2022-08-03T20:10:18.074Z,48.43
2022-08-03T20:12:46.929Z,48.76
2022-08-03T20:15:18.047Z,48.34
2022-08-03T20:17:56.950Z,48.63
2022-08-03T20:20:32.141Z,48.66
2022-08-03T20:23:06.799Z,48.43
2022-08-03T20:25:48.482Z,48.61
2022-08-03T20:31:12.390Z,48.80
2022-08-03T20:33:48.372Z,48.33
2022-08-03T20:36:18.239Z,48.44
2022-08-03T20:38:48.212Z,48.62
2022-08-03T20:41:17.317Z,48.77
2022-08-03T20:43:45.678Z,48.45
2022-08-03T20:46:29.474Z,48.64
2022-08-03T20:49:04.392Z,48.49
2022-08-03T20:51:50.502Z,48.40
2022-08-03T20:54:30.964Z,48.66
2022-08-03T20:57:03.612Z,48.61
2022-08-03T20:59:50.800Z,48.36
2022-08-03T21:02:29.835Z,48.73
2022-08-03T21:05:03.248Z,48.40
2022-08-03T21:08:05.061Z,48.66
2022-08-03T21:10:38.415Z,48.28
2022-08-03T21:12:57.899Z,48.90
2022-08-03T21:13:06.982Z,48.37
2022-08-03T21:13:17.844Z,48.13
2022-08-03T21:16:03.334Z,48.59
2022-08-03T21:18:42.038Z,48.72
2022-08-03T21:21:13.907Z,48.59
2022-08-03T21:23:49.090Z,48.30
2022-08-03T21:26:22.085Z,48.60
2022-08-03T21:28:50.744Z,48.38
2022-08-03T21:31:24.463Z,48.37
2022-08-03T21:33:57.562Z,48.49
2022-08-03T21:36:26.828Z,48.45
2022-08-03T21:38:56.183Z,48.20
2022-08-03T21:41:25.203Z,48.57
2022-08-03T21:43:52.318Z,48.61
2022-08-03T21:46:20.207Z,48.63
2022-08-03T21:48:53.518Z,48.31
2022-08-03T21:51:23.803Z,48.34
2022-08-03T21:54:04.405Z,48.20
2022-08-03T21:56:41.885Z,48.54
2022-08-03T21:59:14.864Z,48.16
2022-08-03T22:01:42.474Z,48.53
2022-08-03T22:04:12.031Z,48.50
2022-08-03T22:06:58.081Z,48.20
2022-08-03T22:09:25.360Z,48.47
2022-08-03T22:11:54.249Z,48.24
2022-08-03T22:14:21.699Z,48.29
2022-08-03T22:16:49.191Z,48.20
2022-08-03T22:19:16.311Z,48.14
2022-08-03T22:21:47.016Z,48.24
2022-08-03T22:24:15.800Z,48.45
2022-08-03T22:27:03.899Z,48.46
2022-08-03T22:29:32.741Z,48.49
2022-08-03T22:32:00.311Z,48.50
2022-08-03T22:34:28.454Z,48.57
2022-08-03T22:37:00.829Z,48.21
2022-08-03T22:39:29.049Z,48.20
2022-08-03T22:41:59.485Z,48.52
2022-08-03T22:44:27.114Z,48.22
2022-08-03T22:46:54.440Z,48.24
2022-08-03T22:49:22.195Z,48.22
2022-08-03T22:51:50.662Z,48.23
2022-08-03T22:54:17.673Z,48.17
2022-08-03T22:56:46.603Z,48.58
2022-08-03T22:59:39.990Z,48.57
2022-08-03T23:02:02.033Z,48.18
2022-08-03T23:04:43.930Z,48.18
2022-08-03T23:07:15.026Z,48.25
2022-08-03T23:09:44.787Z,48.20
2022-08-03T23:12:14.387Z,48.25
2022-08-03T23:14:44.121Z,48.21
2022-08-03T23:17:11.777Z,48.16
2022-08-03T23:19:44.849Z,48.20
2022-08-03T23:22:25.368Z,48.60
2022-08-03T23:24:58.390Z,48.23
2022-08-03T23:27:27.123Z,48.25
2022-08-03T23:29:54.485Z,48.26
2022-08-03T23:32:21.597Z,48.28
2022-08-03T23:35:07.198Z,48.25
2022-08-03T23:37:34.749Z,48.29
2022-08-03T23:40:24.269Z,48.24
2022-08-03T23:42:52.037Z,48.22
2022-08-03T23:45:19.807Z,48.29
2022-08-03T23:47:47.748Z,48.16
2022-08-03T23:50:15.324Z,48.30
2022-08-03T23:52:45.395Z,48.23
2022-08-03T23:55:15.484Z,48.24
2022-08-03T23:58:01.350Z,48.23
